createdAt,value
2022-10-14T00:02:37.349Z,12.27
2022-10-14T00:07:38.703Z,13.35
2022-10-14T00:12:40.094Z,13.50
2022-10-14T00:17:41.403Z,13.43
2022-10-14T00:22:42.775Z,12.65
2022-10-14T00:27:45.296Z,13.40
2022-10-14T00:32:46.720Z,14.57
2022-10-14T00:37:48.076Z,14.27
2022-10-14T00:42:49.475Z,13.82
2022-10-14T00:47:52.816Z,13.40
2022-10-14T00:52:54.259Z,14.00
2022-10-14T00:57:55.650Z,14.82
2022-10-14T01:02:57.194Z,15.23
2022-10-14T01:08:15.021Z,14.57
2022-10-14T01:13:27.944Z,15.50
2022-10-14T01:18:44.803Z,16.23
2022-10-14T01:23:55.407Z,17.13
2022-10-14T01:29:14.554Z,15.68
2022-10-14T01:34:20.863Z,15.05
2022-10-14T01:39:26.581Z,12.20
2022-10-14T01:44:30.466Z,11.63
2022-10-14T01:49:34.979Z,11.60
2022-10-14T01:54:40.476Z,11.32
2022-10-14T01:59:42.577Z,11.18
2022-10-14T02:04:44.008Z,10.88
2022-10-14T02:09:56.513Z,11.55
2022-10-14T02:15:10.088Z,11.45
2022-10-14T02:20:15.581Z,11.75
2022-10-14T02:25:22.271Z,12.15
2022-10-14T02:30:23.688Z,12.63
2022-10-14T02:35:25.314Z,10.95
2022-10-14T02:40:29.377Z,12.07
2022-10-14T02:45:30.739Z,11.90
2022-10-14T02:50:32.318Z,14.05
2022-10-14T02:55:33.674Z,12.95
2022-10-14T03:00:35.952Z,11.57
2022-10-14T03:05:37.333Z,12.00
2022-10-14T03:10:38.736Z,11.43
2022-10-14T03:15:40.353Z,11.43
2022-10-14T03:20:43.119Z,11.57
2022-10-14T03:25:45.454Z,12.18
2022-10-14T03:30:46.868Z,10.80
2022-10-14T03:35:48.197Z,12.02
2022-10-14T03:40:49.517Z,12.52
2022-10-14T03:45:50.951Z,13.07
2022-10-14T03:50:53.219Z,13.30
2022-10-14T03:55:54.621Z,14.60
2022-10-14T04:00:56.022Z,13.18
2022-10-14T04:05:57.491Z,14.48
2022-10-14T04:10:58.850Z,14.02
2022-10-14T04:16:07.143Z,14.45
2022-10-14T04:21:10.611Z,16.73
2022-10-14T04:26:12.022Z,16.33
2022-10-14T04:31:13.387Z,16.52
2022-10-14T04:36:14.825Z,16.73
2022-10-14T04:41:16.159Z,13.93
2022-10-14T04:46:17.749Z,14.70
2022-10-14T04:51:19.132Z,12.82
2022-10-14T04:56:20.518Z,13.90
2022-10-14T05:01:21.918Z,13.40
2022-10-14T05:06:23.321Z,14.02
2022-10-14T05:11:25.272Z,15.73
2022-10-14T05:16:26.917Z,16.45
2022-10-14T05:21:28.244Z,17.88
2022-10-14T05:26:29.563Z,18.23
2022-10-14T05:31:31.138Z,19.25
2022-10-14T05:36:33.080Z,19.02
2022-10-14T05:41:34.451Z,18.35
2022-10-14T05:46:36.283Z,17.92
2022-10-14T05:51:38.202Z,18.02
2022-10-14T05:56:39.642Z,18.05
2022-10-14T06:01:41.018Z,18.92
2022-10-14T06:06:42.387Z,18.02
2022-10-14T06:11:44.007Z,16.30
2022-10-14T06:16:45.391Z,18.13
2022-10-14T06:21:46.928Z,16.63
2022-10-14T06:26:48.558Z,16.00
2022-10-14T06:31:49.904Z,14.75
2022-10-14T06:36:51.411Z,15.02
2022-10-14T06:41:53.147Z,15.73
2022-10-14T06:46:54.495Z,15.18
2022-10-14T06:51:55.828Z,16.00
2022-10-14T06:56:57.194Z,14.68
2022-10-14T07:01:58.730Z,14.63
2022-10-14T07:07:00.165Z,14.98
2022-10-14T07:12:01.870Z,15.63
2022-10-14T07:17:03.774Z,22.60
2022-10-14T07:22:05.174Z,19.85
2022-10-14T07:27:08.255Z,17.08
2022-10-14T07:32:09.614Z,14.10
2022-10-14T07:37:10.972Z,12.48
2022-10-14T07:42:12.314Z,11.52
2022-10-14T07:47:13.774Z,10.10
2022-10-14T07:52:15.872Z,10.88
2022-10-14T07:57:17.284Z,10.30
2022-10-14T08:02:19.194Z,10.45
2022-10-14T08:07:20.935Z,9.50
2022-10-14T08:12:22.766Z,10.07
2022-10-14T08:17:25.022Z,8.70
2022-10-14T08:22:26.426Z,8.43
2022-10-14T08:27:27.765Z,8.07
2022-10-14T08:32:29.161Z,9.10
2022-10-14T08:37:30.555Z,9.13
2022-10-14T08:42:44.139Z,9.70
2022-10-14T08:47:46.245Z,8.45
2022-10-14T08:52:53.546Z,8.68
2022-10-14T08:58:00.217Z,8.25
2022-10-14T09:03:04.961Z,6.97
2022-10-14T09:08:06.662Z,6.32
2022-10-14T09:13:13.781Z,6.38
2022-10-14T09:18:28.699Z,6.97
2022-10-14T09:23:30.066Z,6.80
2022-10-14T09:28:36.819Z,7.53
2022-10-14T09:33:42.290Z,6.10
2022-10-14T09:38:48.392Z,6.85
2022-10-14T09:44:08.581Z,7.60
2022-10-14T09:49:16.279Z,6.60
2022-10-14T09:54:22.032Z,7.68
2022-10-14T09:59:24.391Z,8.18
2022-10-14T10:04:31.806Z,7.28
2022-10-14T10:09:33.787Z,8.27
2022-10-14T10:14:35.150Z,7.75
2022-10-14T10:19:43.768Z,8.50
2022-10-14T10:24:45.559Z,8.27
2022-10-14T10:29:46.942Z,9.85
2022-10-14T10:34:56.673Z,9.63
2022-10-14T10:45:22.636Z,8.23
2022-10-14T10:50:27.818Z,8.15
2022-10-14T10:55:58.634Z,6.97
2022-10-14T11:01:02.462Z,6.68
2022-10-14T11:06:42.445Z,6.80
2022-10-14T11:12:12.825Z,7.97
2022-10-14T11:17:32.912Z,8.05
2022-10-14T11:22:40.544Z,8.40
2022-10-14T11:27:49.032Z,9.73
2022-10-14T11:33:09.267Z,9.95
2022-10-14T11:38:27.638Z,8.80
2022-10-14T11:43:29.084Z,8.80
2022-10-14T11:48:34.410Z,8.43
2022-10-14T11:53:41.879Z,7.40
2022-10-14T11:58:44.899Z,6.40
2022-10-14T12:03:59.846Z,5.97
2022-10-14T12:09:22.096Z,5.97
2022-10-14T12:14:29.599Z,6.32
2022-10-14T12:19:31.724Z,7.20
2022-10-14T12:24:36.786Z,6.72
2022-10-14T12:29:41.007Z,7.43
2022-10-14T12:34:43.526Z,7.80
2022-10-14T12:39:45.044Z,7.53
2022-10-14T12:44:48.184Z,6.50
2022-10-14T12:49:52.168Z,8.02
2022-10-14T12:54:54.093Z,7.60
2022-10-14T12:59:56.774Z,7.38
2022-10-14T13:04:59.172Z,7.22
2022-10-14T13:10:20.509Z,7.95
2022-10-14T13:15:31.029Z,7.60
2022-10-14T13:20:35.093Z,7.50
2022-10-14T13:25:36.504Z,7.30
2022-10-14T13:30:58.173Z,7.22
2022-10-14T13:36:11.725Z,7.50
2022-10-14T13:41:18.782Z,7.05
2022-10-14T13:46:35.356Z,7.30
2022-10-14T13:51:45.374Z,6.85
2022-10-14T13:57:38.343Z,6.93
2022-10-14T14:02:30.035Z,7.15
2022-10-14T14:08:07.938Z,7.55
2022-10-14T14:12:56.185Z,7.47
2022-10-14T14:17:57.596Z,8.20
2022-10-14T14:22:59.618Z,7.57
2022-10-14T14:28:02.011Z,7.65
2022-10-14T14:33:06.950Z,7.53
2022-10-14T14:38:25.312Z,7.10
2022-10-14T14:43:31.335Z,6.55
2022-10-14T14:48:34.037Z,5.70
2022-10-14T14:53:37.205Z,5.85
2022-10-14T14:58:43.433Z,6.28
2022-10-14T15:04:12.925Z,5.80
2022-10-14T15:09:20.510Z,6.93
2022-10-14T15:14:28.201Z,6.35
2022-10-14T15:19:35.551Z,6.13
2022-10-14T15:24:59.148Z,6.53
2022-10-14T15:30:19.250Z,7.63
2022-10-14T15:35:22.051Z,7.65
2022-10-14T15:40:27.761Z,6.68
2022-10-14T15:45:31.973Z,6.97
2022-10-14T15:50:33.414Z,6.60
2022-10-14T15:55:35.929Z,5.68
2022-10-14T16:00:37.467Z,5.68
2022-10-14T16:05:39.985Z,6.50
2022-10-14T16:10:45.500Z,7.28
2022-10-14T16:16:05.762Z,8.38
2022-10-14T16:21:09.862Z,8.40
2022-10-14T16:26:13.830Z,8.60
2022-10-14T16:31:15.521Z,9.65
2022-10-14T16:36:17.814Z,8.63
2022-10-14T16:41:19.246Z,9.38
2022-10-14T16:46:40.585Z,8.95
2022-10-14T16:51:42.291Z,10.00
2022-10-14T16:56:54.184Z,9.88
2022-10-14T17:01:55.690Z,9.20
2022-10-14T17:06:57.296Z,9.45
2022-10-14T17:11:58.647Z,9.95
2022-10-14T17:17:00.433Z,10.02
2022-10-14T17:22:03.257Z,11.00
2022-10-14T17:27:07.158Z,10.25
2022-10-14T17:32:08.540Z,10.57
2022-10-14T17:37:10.160Z,10.32
2022-10-14T17:42:11.545Z,11.23
2022-10-14T17:47:14.066Z,11.48
2022-10-14T17:52:17.056Z,10.73
2022-10-14T17:57:18.487Z,10.52
2022-10-14T18:02:20.011Z,11.30
2022-10-14T18:07:23.243Z,10.10
2022-10-14T18:12:24.926Z,10.02
2022-10-14T18:17:26.406Z,9.85
2022-10-14T18:22:27.997Z,10.05
2022-10-14T18:27:29.892Z,10.23
2022-10-14T18:32:31.322Z,10.90
2022-10-14T18:37:32.839Z,10.65
2022-10-14T18:42:34.264Z,10.23
2022-10-14T18:47:35.713Z,10.60
2022-10-14T18:52:37.091Z,11.38
2022-10-14T18:57:38.425Z,11.32
2022-10-14T19:02:39.838Z,11.38
2022-10-14T19:07:41.399Z,12.70
2022-10-14T19:12:42.838Z,12.75
2022-10-14T19:17:46.003Z,11.75
2022-10-14T19:22:51.888Z,13.60
2022-10-14T19:27:57.114Z,12.65
2022-10-14T19:32:58.502Z,12.60
2022-10-14T19:37:59.861Z,11.43
2022-10-14T19:43:01.290Z,12.75
2022-10-14T19:48:02.676Z,11.38
2022-10-14T19:53:04.094Z,12.07
2022-10-14T19:58:05.561Z,11.57
2022-10-14T20:03:06.939Z,11.80
2022-10-14T20:08:08.431Z,11.40
2022-10-14T20:13:09.915Z,11.13
2022-10-14T20:18:11.302Z,11.80
2022-10-14T20:23:12.660Z,11.65
2022-10-14T20:28:17.394Z,10.40
2022-10-14T20:33:18.874Z,10.15
2022-10-14T20:38:20.281Z,11.70
2022-10-14T20:43:22.116Z,12.98
2022-10-14T20:48:23.510Z,15.70
2022-10-14T20:53:26.135Z,14.50
2022-10-14T20:58:27.524Z,15.98
2022-10-14T21:03:28.880Z,15.02
2022-10-14T21:08:30.319Z,15.07
2022-10-14T21:13:31.722Z,15.85
2022-10-14T21:18:33.154Z,15.70
2022-10-14T21:23:34.654Z,15.45
2022-10-14T21:28:36.147Z,14.63
2022-10-14T21:33:37.613Z,15.65
2022-10-14T21:38:39.392Z,15.70
2022-10-14T21:43:41.056Z,18.10
2022-10-14T21:48:43.153Z,18.35
2022-10-14T21:53:45.961Z,17.10
2022-10-14T21:58:47.376Z,17.55
2022-10-14T22:03:59.014Z,17.55
2022-10-14T22:09:01.251Z,17.20
2022-10-14T22:14:03.992Z,17.83
2022-10-14T22:19:06.334Z,16.85
2022-10-14T22:29:15.761Z,18.08
2022-10-14T22:34:17.707Z,19.33
2022-10-14T22:39:19.033Z,19.30
2022-10-14T22:44:20.503Z,18.83
2022-10-14T22:49:21.826Z,19.23
2022-10-14T22:54:23.219Z,18.95
2022-10-14T22:59:24.597Z,18.65
2022-10-14T23:04:25.985Z,17.42
2022-10-14T23:09:27.534Z,17.40
2022-10-14T23:14:30.538Z,16.83
2022-10-14T23:19:31.934Z,17.48
2022-10-14T23:24:33.259Z,18.30
2022-10-14T23:29:34.593Z,16.60
2022-10-14T23:34:36.331Z,17.35
2022-10-14T23:39:37.726Z,17.00
2022-10-14T23:44:39.154Z,16.83
2022-10-14T23:49:40.506Z,16.58
2022-10-14T23:54:41.883Z,17.00
2022-10-14T23:59:43.309Z,17.88
